Time;durP1;ratioP1;P1;durP2;ratioP2;P2;SDS_P1;SDS_P2;PMS_P1;PMS_P2;Temp;Humidity;BMP_temperature;BMP_pressure;BME280_temperature;BME280_humidity;BME280_pressure;Samples;Min_cycle;Max_cycle;Signal;HPM_P1;HPM_P2
2022/05/23 00:00:17;;;;;;;11.13;4.20;;;22.50;99.90;;;;;;5062446;28;20187;-77
2022/05/23 00:02:45;;;;;;;7.87;3.80;;;22.50;99.90;;;;;;5051003;28;20213;-77
2022/05/23 00:05:17;;;;;;;7.70;4.60;;;22.30;99.90;;;;;;5052322;28;20624;-82
2022/05/23 00:07:47;;;;;;;10.73;4.40;;;22.10;1.00;;;;;;5054297;28;20191;-82
2022/05/23 00:10:16;;;;;;;8.57;4.10;;;22.20;1.00;;;;;;5052671;28;20261;-84
2022/05/23 00:12:43;;;;;;;7.93;4.00;;;22.10;99.90;;;;;;5052614;28;20253;-83
2022/05/23 00:15:11;;;;;;;10.43;4.10;;;22.00;1.00;;;;;;5051795;28;20270;-78
2022/05/23 00:17:37;;;;;;;8.73;4.20;;;21.90;1.00;;;;;;5050455;28;20187;-81
2022/05/23 00:20:06;;;;;;;7.63;4.07;;;22.00;1.00;;;;;;5051671;28;20664;-87
2022/05/23 00:22:32;;;;;;;7.60;4.30;;;21.80;1.00;;;;;;5052198;28;20657;-84
2022/05/23 00:24:58;;;;;;;8.00;4.57;;;21.80;1.00;;;;;;5050995;28;20295;-80
2022/05/23 00:27:24;;;;;;;9.00;3.73;;;21.70;1.00;;;;;;5049134;28;20206;-77
2022/05/23 00:29:51;;;;;;;8.10;4.30;;;21.60;1.00;;;;;;5050201;28;20192;-82
2022/05/23 00:35:20;;;;;;;6.97;4.20;;;21.50;1.00;;;;;;5051272;28;20330;-81
2022/05/23 00:37:49;;;;;;;11.67;4.03;;;21.70;1.00;;;;;;5055760;28;20672;-86
2022/05/23 00:40:32;;;;;;;6.90;4.13;;;21.80;1.00;;;;;;5064943;28;20255;-82
2022/05/23 00:43:14;;;;;;;5.73;3.97;;;22.00;1.00;;;;;;5058191;28;20175;-80
2022/05/23 00:45:53;;;;;;;7.23;3.70;;;22.00;1.00;;;;;;5054684;28;20206;-82
2022/05/23 00:48:25;;;;;;;9.40;4.20;;;22.10;1.00;;;;;;5055111;28;20209;-78
2022/05/23 00:51:03;;;;;;;10.23;4.40;;;22.10;1.00;;;;;;5056640;28;20260;-77
2022/05/23 00:53:40;;;;;;;6.53;4.30;;;22.00;1.00;;;;;;5054872;28;20177;-76
2022/05/23 00:56:07;;;;;;;7.73;4.57;;;22.00;1.00;;;;;;5055781;28;20188;-78
2022/05/23 00:58:37;;;;;;;12.20;4.40;;;22.10;1.00;;;;;;5057718;28;20551;-81
2022/05/23 01:01:08;;;;;;;9.07;4.60;;;22.10;1.00;;;;;;5061845;28;20166;-85
2022/05/23 01:03:35;;;;;;;6.87;4.43;;;22.20;1.00;;;;;;5060901;28;20165;-81
2022/05/23 01:06:01;;;;;;;7.00;4.00;;;22.20;1.00;;;;;;5065329;28;20212;-77
2022/05/23 01:08:27;;;;;;;8.70;4.13;;;22.20;1.00;;;;;;5070125;28;20237;-80
2022/05/23 01:10:53;;;;;;;9.20;4.27;;;22.00;1.00;;;;;;5075197;28;20245;-79
2022/05/23 01:13:19;;;;;;;7.33;4.20;;;21.80;1.00;;;;;;5075098;28;20227;-85
2022/05/23 01:15:50;;;;;;;8.23;4.30;;;21.60;1.00;;;;;;5067812;28;20174;-84
2022/05/23 01:18:18;;;;;;;10.73;4.50;;;21.60;1.00;;;;;;5060690;28;20180;-84
2022/05/23 01:21:00;;;;;;;7.50;4.97;;;21.60;1.00;;;;;;5061000;28;20172;-81
2022/05/23 01:23:38;;;;;;;8.90;4.33;;;21.90;1.00;;;;;;5056770;28;20162;-80
2022/05/23 01:26:04;;;;;;;7.17;4.40;;;22.00;1.00;;;;;;5056479;28;20241;-85
2022/05/23 01:28:40;;;;;;;7.57;4.80;;;22.00;1.00;;;;;;5057196;28;20162;-77
2022/05/23 01:31:06;;;;;;;6.97;4.73;;;22.00;1.00;;;;;;5051512;28;20180;-77
2022/05/23 01:33:32;;;;;;;8.17;4.87;;;21.90;1.00;;;;;;5053804;28;20177;-78
2022/05/23 01:35:59;;;;;;;8.73;4.80;;;21.70;1.00;;;;;;5052850;28;20208;-83
2022/05/23 01:38:26;;;;;;;8.13;4.80;;;21.60;1.00;;;;;;5055261;28;20184;-86
2022/05/23 01:40:55;;;;;;;9.60;5.00;;;21.60;1.00;;;;;;5053617;28;20177;-82
2022/05/23 01:43:21;;;;;;;8.50;4.83;;;21.70;1.00;;;;;;5055500;28;20166;-78
2022/05/23 01:45:46;;;;;;;10.70;5.00;;;21.80;1.00;;;;;;5056940;28;20690;-79
2022/05/23 01:48:12;;;;;;;10.43;5.43;;;21.90;1.00;;;;;;5059579;28;20183;-77
2022/05/23 01:50:38;;;;;;;8.27;4.97;;;21.90;1.00;;;;;;5054930;28;20204;-78
2022/05/23 01:53:05;;;;;;;8.43;4.30;;;21.90;1.00;;;;;;5052929;28;20311;-79
2022/05/23 01:55:31;;;;;;;10.43;4.60;;;21.80;1.00;;;;;;5052971;28;20169;-84
2022/05/23 01:57:58;;;;;;;11.17;4.47;;;21.80;1.00;;;;;;5054357;28;20181;-85
2022/05/23 02:03:07;;;;;;;7.30;4.27;;;21.70;1.00;;;;;;5052887;28;20195;-76
2022/05/23 02:05:33;;;;;;;9.20;4.40;;;21.40;1.00;;;;;;5049674;28;20288;-76
2022/05/23 02:08:00;;;;;;;10.10;4.87;;;21.30;1.00;;;;;;5052550;28;20197;-77
2022/05/23 02:10:26;;;;;;;9.00;5.20;;;21.20;1.00;;;;;;5053739;28;20177;-83
2022/05/23 02:12:53;;;;;;;8.03;4.70;;;21.30;1.00;;;;;;5053641;28;20547;-80
2022/05/23 02:15:19;;;;;;;8.93;4.50;;;21.20;1.00;;;;;;5050383;28;20227;-78
2022/05/23 02:17:45;;;;;;;10.17;5.30;;;21.20;1.00;;;;;;5053184;28;20192;-79
2022/05/23 02:20:12;;;;;;;11.43;4.77;;;21.30;1.00;;;;;;5053429;28;20256;-83
2022/05/23 02:22:38;;;;;;;9.90;4.77;;;21.30;1.00;;;;;;5052991;28;20211;-83
2022/05/23 02:25:05;;;;;;;10.40;4.80;;;21.40;1.00;;;;;;5051838;28;20208;-82
2022/05/23 02:27:31;;;;;;;11.90;5.50;;;21.30;1.00;;;;;;5053814;28;20187;-86
2022/05/23 02:29:57;;;;;;;10.80;5.40;;;21.20;1.00;;;;;;5054078;28;20204;-82
2022/05/23 02:32:23;;;;;;;7.50;4.77;;;21.20;1.00;;;;;;5062102;28;20199;-78
2022/05/23 02:34:49;;;;;;;7.93;5.10;;;21.20;1.00;;;;;;5062528;28;20275;-80
2022/05/23 02:37:15;;;;;;;8.87;5.03;;;21.10;1.00;;;;;;5059065;28;20642;-78
2022/05/23 02:39:42;;;;;;;10.97;6.03;;;21.20;1.00;;;;;;5059617;28;20186;-84
2022/05/23 02:42:08;;;;;;;10.20;5.40;;;21.00;1.00;;;;;;5055036;28;20369;-83
2022/05/23 02:44:35;;;;;;;8.50;5.57;;;20.90;1.00;;;;;;5054131;28;20212;-82
2022/05/23 02:47:00;;;;;;;12.40;6.47;;;20.80;1.00;;;;;;5054687;28;20640;-81
2022/05/23 02:49:27;;;;;;;8.33;5.40;;;20.80;1.00;;;;;;5053832;28;20184;-76
2022/05/23 02:51:53;;;;;;;10.00;5.50;;;20.90;1.00;;;;;;5058977;28;20196;-75
2022/05/23 02:54:22;;;;;;;11.63;5.40;;;20.80;1.00;;;;;;5060511;28;20169;-78
2022/05/23 02:56:49;;;;;;;10.30;5.17;;;20.90;1.00;;;;;;5055100;28;20176;-82
2022/05/23 02:59:14;;;;;;;8.60;4.73;;;21.00;1.00;;;;;;5053917;28;20181;-82
2022/05/23 03:04:37;;;;;;;9.07;4.97;;;21.10;1.00;;;;;;5054514;28;20212;-80
2022/05/23 03:07:03;;;;;;;10.63;5.23;;;21.00;1.00;;;;;;5053690;28;20181;-81
2022/05/23 03:09:32;;;;;;;8.73;5.40;;;20.70;1.00;;;;;;5055075;28;20183;-81
2022/05/23 03:11:59;;;;;;;9.10;5.50;;;20.60;1.00;;;;;;5055114;28;20173;-84
2022/05/23 03:14:26;;;;;;;11.03;6.00;;;20.50;1.00;;;;;;5053238;28;20639;-80
2022/05/23 03:16:52;;;;;;;10.53;5.30;;;20.60;1.00;;;;;;5063740;28;20168;-83
2022/05/23 03:19:18;;;;;;;9.67;5.50;;;20.60;1.00;;;;;;5067289;28;20266;-81
2022/05/23 03:27:12;;;;;;;7.80;5.20;;;20.80;1.00;;;;;;5058757;28;20255;-86
2022/05/23 03:29:51;;;;;;;11.27;6.37;;;20.70;1.00;;;;;;5054620;28;20201;-80
2022/05/23 03:32:17;;;;;;;7.70;5.20;;;20.70;1.00;;;;;;5052674;28;20185;-82
2022/05/23 03:34:43;;;;;;;14.27;6.40;;;20.60;1.00;;;;;;5052608;28;20179;-82
2022/05/23 03:37:08;;;;;;;10.00;5.90;;;20.20;1.00;;;;;;5053517;28;20185;-80
2022/05/23 03:39:37;;;;;;;10.40;5.80;;;20.10;1.00;;;;;;5052958;28;20242;-77
2022/05/23 03:42:04;;;;;;;9.20;5.60;;;20.10;1.00;;;;;;5049906;28;20182;-79
2022/05/23 03:44:30;;;;;;;11.07;5.60;;;19.80;1.00;;;;;;5049950;28;20211;-79
2022/05/23 03:46:56;;;;;;;8.30;5.33;;;19.70;1.00;;;;;;5048778;28;20183;-79
2022/05/23 03:49:21;;;;;;;12.17;5.20;;;19.60;1.00;;;;;;5051528;28;20171;-85
2022/05/23 03:51:47;;;;;;;13.90;6.23;;;19.50;1.00;;;;;;5052159;28;20185;-85
2022/05/23 03:54:13;;;;;;;11.07;5.57;;;19.30;1.00;;;;;;5064478;28;20170;-78
2022/05/23 03:56:39;;;;;;;14.13;5.50;;;19.20;1.00;;;;;;5066684;28;20184;-83
2022/05/23 03:59:05;;;;;;;12.57;5.77;;;19.20;1.00;;;;;;5066634;28;20260;-81
2022/05/23 04:01:31;;;;;;;10.50;5.90;;;19.10;1.00;;;;;;5062746;28;20166;-77
2022/05/23 04:03:57;;;;;;;10.57;6.00;;;19.10;1.00;;;;;;5062366;28;20692;-77
2022/05/23 04:06:23;;;;;;;10.53;5.77;;;19.00;1.00;;;;;;5062901;28;20217;-83
2022/05/23 04:08:49;;;;;;;10.07;6.23;;;19.10;1.00;;;;;;5061436;28;20172;-85
2022/05/23 04:11:15;;;;;;;12.87;6.80;;;19.10;2.20;;;;;;5050642;28;20660;-81
2022/05/23 04:13:41;;;;;;;14.97;6.47;;;19.10;1.00;;;;;;5036338;28;20189;-79
2022/05/23 04:16:08;;;;;;;12.43;5.97;;;19.10;1.00;;;;;;5049307;28;20189;-79
2022/05/23 04:18:36;;;;;;;11.47;6.50;;;19.10;2.40;;;;;;5050323;28;20188;-79
2022/05/23 04:21:02;;;;;;;11.63;6.27;;;19.10;3.90;;;;;;5051144;28;20170;-79
2022/05/23 04:23:28;;;;;;;9.67;5.93;;;19.10;4.90;;;;;;5050405;28;20165;-81
2022/05/23 04:25:54;;;;;;;12.10;6.07;;;19.10;4.10;;;;;;5051998;28;20253;-81
2022/05/23 04:28:22;;;;;;;12.80;7.07;;;19.10;3.70;;;;;;5051464;28;20178;-76
2022/05/23 04:30:48;;;;;;;13.63;6.90;;;19.00;5.90;;;;;;5052074;28;20198;-83
2022/05/23 04:36:05;;;;;;;11.77;7.03;;;19.00;9.00;;;;;;5051899;28;20219;-85
2022/05/23 04:38:31;;;;;;;17.53;7.40;;;18.90;13.60;;;;;;5051505;28;20563;-83
2022/05/23 04:40:59;;;;;;;14.77;6.90;;;18.80;12.60;;;;;;5050840;28;20272;-79
2022/05/23 04:43:24;;;;;;;15.70;6.90;;;18.90;13.90;;;;;;5050760;28;20167;-79
2022/05/23 04:45:50;;;;;;;12.23;6.90;;;19.00;12.60;;;;;;5048596;28;20347;-83
2022/05/23 04:51:00;;;;;;;14.87;6.30;;;19.10;11.60;;;;;;5049485;28;20743;-81
2022/05/23 04:53:26;;;;;;;14.77;7.07;;;19.10;9.70;;;;;;5051546;28;20259;-81
2022/05/23 04:55:52;;;;;;;11.63;6.60;;;19.10;7.30;;;;;;5049395;28;20184;-76
2022/05/23 04:58:18;;;;;;;15.50;7.93;;;19.10;5.80;;;;;;5050526;28;20192;-83
2022/05/23 05:00:43;;;;;;;12.77;6.67;;;19.20;6.00;;;;;;5053226;28;20185;-77
2022/05/23 05:03:09;;;;;;;13.47;6.97;;;19.20;5.10;;;;;;5053679;28;20194;-78
2022/05/23 05:05:35;;;;;;;14.23;7.17;;;19.40;2.00;;;;;;5054486;28;20267;-86
2022/05/23 05:08:02;;;;;;;10.20;6.63;;;19.50;1.00;;;;;;5055974;28;20651;-83
2022/05/23 05:10:28;;;;;;;18.37;7.20;;;19.60;1.00;;;;;;5056777;28;20179;-78
2022/05/23 05:12:55;;;;;;;13.37;6.83;;;19.50;1.00;;;;;;5058491;28;20194;-76
2022/05/23 05:15:23;;;;;;;12.97;6.77;;;19.40;1.00;;;;;;5059616;28;20261;-76
2022/05/23 05:17:48;;;;;;;11.23;6.43;;;19.50;1.00;;;;;;5062107;28;20195;-76
2022/05/23 05:20:18;;;;;;;19.87;8.33;;;19.60;1.00;;;;;;5065895;28;20662;-78
2022/05/23 05:22:47;;;;;;;12.43;7.13;;;19.70;1.00;;;;;;5070625;28;20202;-77
2022/05/23 05:25:13;;;;;;;12.13;7.00;;;19.80;1.00;;;;;;5049092;28;20215;-79
2022/05/23 05:27:39;;;;;;;20.27;14.27;;;19.90;1.00;;;;;;5048543;28;20175;-76
2022/05/23 05:30:08;;;;;;;13.27;7.10;;;20.00;1.00;;;;;;5053776;28;20196;-77
2022/05/23 05:32:44;;;;;;;14.60;6.73;;;20.10;1.00;;;;;;5057618;28;20203;-79
2022/05/23 05:35:33;;;;;;;13.87;6.50;;;20.30;1.00;;;;;;5051998;28;20230;-77
2022/05/23 05:38:25;;;;;;;11.00;5.70;;;20.40;1.00;;;;;;5087630;28;20538;-77
2022/05/23 05:40:56;;;;;;;9.67;6.47;;;20.50;1.00;;;;;;5064089;28;20198;-84
2022/05/23 05:43:31;;;;;;;8.80;5.07;;;20.50;1.00;;;;;;5071551;28;20180;-84
2022/05/23 05:46:03;;;;;;;13.57;6.00;;;20.70;1.00;;;;;;5066405;28;20198;-79
2022/05/23 05:48:36;;;;;;;9.73;4.47;;;20.70;1.00;;;;;;5060513;28;20192;-78
2022/05/23 05:51:02;;;;;;;9.30;4.87;;;20.80;1.00;;;;;;5063904;28;20169;-79
2022/05/23 05:53:32;;;;;;;6.37;4.70;;;20.80;1.00;;;;;;5065185;28;20172;-80
2022/05/23 05:56:12;;;;;;;9.73;4.90;;;21.00;1.00;;;;;;5064812;28;20198;-83
2022/05/23 05:58:44;;;;;;;7.03;4.17;;;21.10;1.00;;;;;;5060554;28;20651;-84
2022/05/23 06:01:16;;;;;;;9.30;4.63;;;21.20;1.00;;;;;;5039093;28;20764;-84
2022/05/23 06:03:41;;;;;;;7.83;4.40;;;21.30;1.00;;;;;;5041488;28;20525;-80
2022/05/23 06:11:38;;;;;;;7.87;5.03;;;21.30;1.00;;;;;;5041405;28;20167;-83
2022/05/23 06:14:06;;;;;;;12.50;4.60;;;21.40;1.00;;;;;;5062129;28;20177;-86
2022/05/23 06:16:44;;;;;;;7.80;4.70;;;21.30;1.00;;;;;;5042039;28;20598;-86
2022/05/23 06:19:10;;;;;;;8.27;4.63;;;21.40;1.00;;;;;;5041713;28;20174;-77
2022/05/23 06:21:36;;;;;;;9.53;4.57;;;21.30;1.00;;;;;;5039330;28;20570;-80
2022/05/23 06:24:02;;;;;;;8.23;4.00;;;21.30;1.00;;;;;;5041394;28;20276;-77
2022/05/23 06:26:29;;;;;;;7.83;4.50;;;21.30;1.00;;;;;;5045824;28;20689;-78
2022/05/23 06:28:55;;;;;;;8.67;3.87;;;21.40;1.00;;;;;;5042026;28;20190;-80
2022/05/23 06:31:21;;;;;;;8.73;3.73;;;21.40;1.00;;;;;;5038787;28;20184;-81
2022/05/23 06:33:48;;;;;;;7.63;4.60;;;21.50;1.00;;;;;;5042504;28;20193;-79
2022/05/23 06:36:15;;;;;;;10.47;4.57;;;21.50;1.00;;;;;;5040006;28;20660;-80
2022/05/23 06:38:42;;;;;;;11.80;4.40;;;21.70;1.00;;;;;;5041654;28;20163;-82
2022/05/23 06:41:10;;;;;;;11.90;4.37;;;21.70;1.00;;;;;;5040971;28;20248;-85
2022/05/23 06:43:38;;;;;;;7.93;4.97;;;21.60;1.00;;;;;;5037808;28;20634;-85
2022/05/23 06:46:04;;;;;;;13.90;4.93;;;21.60;1.00;;;;;;5038834;28;20572;-86
2022/05/23 06:48:31;;;;;;;10.67;5.03;;;21.60;1.00;;;;;;5043734;28;20170;-81
2022/05/23 06:50:57;;;;;;;9.67;4.90;;;21.50;1.00;;;;;;5052414;28;20181;-78
2022/05/23 06:53:25;;;;;;;11.00;4.83;;;21.60;1.00;;;;;;5050829;28;20647;-82
2022/05/23 06:55:51;;;;;;;12.90;5.40;;;21.60;1.00;;;;;;5041396;28;20203;-84
2022/05/23 06:58:20;;;;;;;9.97;4.97;;;21.60;1.00;;;;;;5043976;28;20251;-86
2022/05/23 07:00:54;;;;;;;6.93;3.50;;;21.70;1.00;;;;;;5037872;28;20545;-83
2022/05/23 07:03:21;;;;;;;11.47;4.70;;;21.70;1.00;;;;;;5038480;28;20536;-86
2022/05/23 07:14:03;;;;;;;6.67;3.00;;;21.90;1.00;;;;;;5039113;28;20623;-85
2022/05/23 07:16:31;;;;;;;8.03;3.10;;;22.00;1.00;;;;;;5038930;28;20219;-84
2022/05/23 07:18:57;;;;;;;6.17;2.83;;;22.00;1.00;;;;;;5042273;28;20642;-80
2022/05/23 07:21:26;;;;;;;7.63;3.07;;;22.00;1.00;;;;;;5040059;28;20169;-84
2022/05/23 07:23:53;;;;;;;5.00;2.70;;;22.20;1.00;;;;;;5040623;28;20178;-81
2022/05/23 07:26:22;;;;;;;6.03;3.00;;;22.10;1.00;;;;;;5039319;28;20221;-83
2022/05/23 07:28:49;;;;;;;6.77;3.20;;;22.30;1.00;;;;;;5040239;28;20178;-81
2022/05/23 07:31:18;;;;;;;5.27;2.87;;;22.40;1.00;;;;;;5038998;28;20640;-86
2022/05/23 07:33:45;;;;;;;5.30;2.90;;;22.50;1.00;;;;;;5039742;28;20189;-88
2022/05/23 07:36:12;;;;;;;6.10;3.23;;;22.50;1.00;;;;;;5039935;28;20703;-85
2022/05/23 07:38:38;;;;;;;9.47;3.53;;;22.60;1.00;;;;;;5036516;28;20198;-88
2022/05/23 07:41:07;;;;;;;8.77;4.00;;;22.70;1.00;;;;;;5037197;28;20626;-83
2022/05/23 07:43:37;;;;;;;11.80;4.17;;;22.70;1.00;;;;;;5035750;28;20174;-84
2022/05/23 07:46:10;;;;;;;9.40;4.20;;;22.60;1.00;;;;;;5040013;28;20202;-82
2022/05/23 07:48:41;;;;;;;8.03;3.30;;;22.60;1.00;;;;;;5040866;28;20166;-86
2022/05/23 07:51:10;;;;;;;6.53;3.93;;;22.60;1.00;;;;;;5046615;28;20243;-80
2022/05/23 08:01:50;;;;;;;5.70;2.80;;;22.50;1.00;;;;;;5045108;28;20190;-84
2022/05/23 08:04:17;;;;;;;9.67;2.80;;;22.40;1.00;;;;;;5049560;28;20174;-80
2022/05/23 08:06:43;;;;;;;5.53;2.90;;;22.40;1.00;;;;;;5040769;28;20191;-87
2022/05/23 08:09:10;;;;;;;5.70;3.20;;;22.50;1.00;;;;;;5041252;28;20199;-85
2022/05/23 08:11:40;;;;;;;7.60;3.40;;;22.60;1.00;;;;;;5046475;28;20184;-80
2022/05/23 08:14:07;;;;;;;8.60;3.80;;;22.90;1.00;;;;;;5044979;28;20171;-77
2022/05/23 08:16:39;;;;;;;9.10;3.33;;;22.90;1.00;;;;;;5042163;28;20160;-86
2022/05/23 08:19:08;;;;;;;7.50;3.00;;;22.90;1.00;;;;;;5045890;28;20204;-78
2022/05/23 08:21:38;;;;;;;7.90;2.77;;;23.10;1.00;;;;;;5047247;28;20161;-79
2022/05/23 08:24:05;;;;;;;8.07;3.67;;;23.40;1.00;;;;;;5043288;28;20217;-85
2022/05/23 08:26:31;;;;;;;7.50;3.63;;;23.50;1.00;;;;;;5045675;28;20212;-78
2022/05/23 08:28:57;;;;;;;7.30;3.60;;;23.50;1.00;;;;;;5042892;28;20271;-77
2022/05/23 08:31:23;;;;;;;5.63;3.40;;;23.40;1.00;;;;;;5035846;28;20171;-85
2022/05/23 08:33:49;;;;;;;10.57;4.13;;;23.30;1.00;;;;;;5035371;28;20160;-82
2022/05/23 08:36:14;;;;;;;7.37;3.97;;;23.30;1.00;;;;;;5039240;28;20173;-80
2022/05/23 08:38:40;;;;;;;8.97;4.43;;;23.40;1.00;;;;;;5037492;28;20175;-79
2022/05/23 08:41:19;;;;;;;8.33;4.13;;;23.70;1.00;;;;;;5039489;28;20186;-80
2022/05/23 08:44:05;;;;;;;8.40;4.50;;;23.80;1.00;;;;;;5055217;28;20236;-86
2022/05/23 08:46:53;;;;;;;9.03;3.37;;;23.80;1.00;;;;;;5057422;28;20207;-84
2022/05/23 08:49:36;;;;;;;7.73;3.47;;;24.00;1.00;;;;;;5055917;28;20175;-86
2022/05/23 08:52:13;;;;;;;6.73;3.93;;;24.20;99.90;;;;;;5055936;28;20172;-85
2022/05/23 08:54:56;;;;;;;8.70;3.57;;;24.40;99.90;;;;;;5057725;28;20636;-86
2022/05/23 08:57:50;;;;;;;6.57;3.90;;;24.30;99.90;;;;;;5055967;28;20605;-85
2022/05/23 09:00:20;;;;;;;6.60;3.10;;;24.20;99.90;;;;;;5066115;28;20165;-83
2022/05/23 09:02:52;;;;;;;5.70;2.67;;;24.40;99.90;;;;;;5074773;28;20151;-84
2022/05/23 09:05:23;;;;;;;5.97;2.80;;;24.40;99.90;;;;;;5075541;28;20220;-83
2022/05/23 09:07:54;;;;;;;6.03;2.90;;;24.50;99.90;;;;;;5080729;28;20208;-84
2022/05/23 09:10:23;;;;;;;4.63;2.50;;;24.70;1.00;;;;;;5078174;28;20168;-78
2022/05/23 09:12:52;;;;;;;5.33;2.67;;;24.70;1.00;;;;;;5074488;28;20179;-77
2022/05/23 09:15:24;;;;;;;6.83;3.03;;;24.40;1.00;;;;;;5072956;28;20224;-78
2022/05/23 09:17:55;;;;;;;4.17;2.03;;;24.30;99.90;;;;;;5061587;28;20168;-85
2022/05/23 09:20:46;;;;;;;4.43;2.20;;;24.40;92.60;;;;;;5059246;28;20184;-78
2022/05/23 09:23:34;;;;;;;5.47;2.57;;;24.50;27.20;;;;;;5075081;28;20198;-77
2022/05/23 09:26:09;;;;;;;6.20;2.67;;;24.70;1.00;;;;;;5071883;28;20219;-80
2022/05/23 09:28:39;;;;;;;5.73;3.30;;;24.80;1.00;;;;;;5075446;28;20179;-78
2022/05/23 09:31:17;;;;;;;2.63;1.33;;;24.90;1.00;;;;;;5071382;28;20260;-79
2022/05/23 09:33:49;;;;;;;3.93;1.70;;;24.70;99.90;;;;;;5061581;28;20196;-84
2022/05/23 09:36:29;;;;;;;6.47;1.77;;;24.50;1.00;;;;;;5063167;28;20637;-84
2022/05/23 09:38:58;;;;;;;5.50;2.70;;;24.80;1.00;;;;;;5059040;28;20177;-80
2022/05/23 09:49:48;;;;;;;6.50;2.40;;;25.00;99.90;;;;;;5075552;28;20184;-78
2022/05/23 09:52:25;;;;;;;9.57;2.70;;;24.80;1.00;;;;;;5063925;28;20171;-86
2022/05/23 09:55:39;;;;;;;7.50;2.70;;;24.90;1.00;;;;;;5061740;28;20161;-83
2022/05/23 09:58:11;;;;;;;5.63;2.10;;;24.80;1.00;;;;;;5059311;28;20173;-83
2022/05/23 10:00:40;;;;;;;9.30;3.00;;;24.80;59.50;;;;;;5059078;28;20169;-83
2022/05/23 10:03:13;;;;;;;8.77;3.07;;;24.90;1.00;;;;;;5060031;28;20161;-85
2022/05/23 10:05:46;;;;;;;4.67;2.67;;;24.80;99.90;;;;;;5059782;28;20207;-83
2022/05/23 10:08:14;;;;;;;5.60;2.40;;;24.80;1.00;;;;;;5062407;28;20180;-82
2022/05/23 10:10:55;;;;;;;7.93;2.93;;;24.70;1.00;;;;;;5074689;28;20181;-77
2022/05/23 10:13:33;;;;;;;5.73;2.87;;;24.60;1.00;;;;;;5076120;28;20170;-77
2022/05/23 10:16:15;;;;;;;6.53;3.00;;;24.50;1.00;;;;;;5069220;28;20160;-77
2022/05/23 10:18:51;;;;;;;5.90;2.73;;;24.30;1.00;;;;;;5066778;28;20188;-83
2022/05/23 10:21:32;;;;;;;6.27;2.87;;;24.30;1.00;;;;;;5062044;28;20183;-80
2022/05/23 10:24:11;;;;;;;6.60;2.90;;;24.40;1.00;;;;;;5072523;28;20153;-81
2022/05/23 10:26:52;;;;;;;6.53;2.80;;;24.50;1.00;;;;;;5079113;28;20196;-79
2022/05/23 10:29:39;;;;;;;5.43;2.57;;;24.70;1.00;;;;;;5078622;28;20200;-79
2022/05/23 10:32:12;;;;;;;6.90;3.10;;;24.60;1.00;;;;;;5078303;28;20146;-81
2022/05/23 10:34:52;;;;;;;7.47;2.70;;;24.50;1.00;;;;;;5079037;28;20165;-78
2022/05/23 10:37:40;;;;;;;5.70;2.90;;;24.40;1.00;;;;;;5073183;28;20156;-85
2022/05/23 10:43:15;;;;;;;9.10;3.07;;;24.30;1.00;;;;;;5052040;28;20640;-88
2022/05/23 10:45:54;;;;;;;5.50;3.40;;;24.30;1.00;;;;;;5040028;28;20573;-79
2022/05/23 10:49:15;;;;;;;6.73;3.17;;;24.40;1.00;;;;;;5037823;28;20192;-79
2022/05/23 10:52:11;;;;;;;7.93;3.40;;;24.40;1.00;;;;;;5042014;28;20241;-84
2022/05/23 10:54:40;;;;;;;5.87;3.63;;;24.40;1.00;;;;;;5038207;28;20205;-80
2022/05/23 10:57:27;;;;;;;6.13;3.60;;;24.50;1.00;;;;;;5038014;28;20614;-81
2022/05/23 11:00:37;;;;;;;7.40;3.00;;;24.40;1.00;;;;;;5036703;28;20205;-79
2022/05/23 11:03:10;;;;;;;6.77;3.40;;;24.30;1.00;;;;;;5038295;28;20165;-81
2022/05/23 11:05:56;;;;;;;6.53;3.73;;;24.40;1.00;;;;;;5041570;28;20205;-82
2022/05/23 11:08:49;;;;;;;7.07;3.60;;;24.50;1.00;;;;;;5041038;28;20182;-84
2022/05/23 11:11:28;;;;;;;7.97;4.00;;;24.40;1.00;;;;;;5041408;28;20166;-86
2022/05/23 11:14:24;;;;;;;9.53;3.40;;;24.40;1.00;;;;;;5038566;28;20231;-84
2022/05/23 11:17:02;;;;;;;7.07;3.70;;;24.40;1.00;;;;;;5039715;28;20546;-85
2022/05/23 11:19:42;;;;;;;9.23;3.70;;;24.50;1.00;;;;;;5043404;28;20184;-82
2022/05/23 11:22:20;;;;;;;10.43;4.40;;;24.00;1.00;;;;;;5052724;28;20173;-81
2022/05/23 11:25:02;;;;;;;8.40;3.47;;;23.40;1.00;;;;;;5057809;28;20237;-81
2022/05/23 11:36:06;;;;;;;10.63;5.60;;;22.00;33.50;;;;;;5060252;28;20176;-84
2022/05/23 11:38:34;;;;;;;7.27;4.30;;;21.80;39.00;;;;;;5061582;28;20637;-79
2022/05/23 11:41:03;;;;;;;9.13;4.53;;;21.50;46.90;;;;;;5059301;28;20169;-83
2022/05/23 11:43:29;;;;;;;8.13;4.13;;;21.40;51.10;;;;;;5058120;28;20170;-82
2022/05/23 11:48:37;;;;;;;9.17;4.30;;;21.60;54.20;;;;;;5061321;28;20166;-86
2022/05/23 11:51:24;;;;;;;9.70;5.10;;;21.60;54.90;;;;;;5060438;28;20525;-86
2022/05/23 11:53:58;;;;;;;9.50;4.57;;;21.60;57.30;;;;;;5054473;28;20204;-81
2022/05/23 11:56:43;;;;;;;9.57;5.00;;;21.50;59.70;;;;;;5050319;28;20170;-85
2022/05/23 11:59:30;;;;;;;10.30;4.43;;;21.60;59.50;;;;;;5043839;28;20193;-79
2022/05/23 12:02:08;;;;;;;7.40;4.60;;;21.60;60.20;;;;;;5042170;28;20248;-88
2022/05/23 12:04:55;;;;;;;15.20;4.80;;;21.50;62.70;;;;;;5041636;28;20252;-80
2022/05/23 12:07:42;;;;;;;11.77;4.93;;;21.50;61.00;;;;;;5039698;28;20193;-80
2022/05/23 12:10:22;;;;;;;7.40;4.23;;;21.50;62.70;;;;;;5036712;28;20158;-82
2022/05/23 12:12:49;;;;;;;7.50;4.70;;;21.60;60.90;;;;;;5037417;28;20181;-78
2022/05/23 12:15:43;;;;;;;8.40;4.67;;;21.70;58.70;;;;;;5036005;28;20220;-83
2022/05/23 12:18:33;;;;;;;8.07;5.53;;;21.60;54.40;;;;;;5038715;28;20169;-77
2022/05/23 12:21:03;;;;;;;7.57;4.73;;;21.70;54.40;;;;;;5037982;28;20166;-81
2022/05/23 12:23:44;;;;;;;12.47;7.03;;;21.50;53.90;;;;;;5043203;28;20228;-82
2022/05/23 12:26:14;;;;;;;17.33;7.33;;;21.20;57.50;;;;;;5047965;28;20220;-78
2022/05/23 12:28:46;;;;;;;13.53;6.83;;;20.90;65.80;;;;;;5045529;28;20172;-86
2022/05/23 12:31:17;;;;;;;16.53;7.37;;;20.90;67.90;;;;;;5044588;28;20187;-79
2022/05/23 12:33:51;;;;;;;15.60;7.37;;;20.90;69.10;;;;;;5047071;28;20172;-86
2022/05/23 12:36:25;;;;;;;15.17;7.60;;;20.80;72.20;;;;;;5046666;28;20211;-86
2022/05/23 12:39:18;;;;;;;14.83;7.57;;;20.80;74.00;;;;;;5045967;28;20171;-81
2022/05/23 12:42:00;;;;;;;16.00;8.43;;;20.70;79.10;;;;;;5044646;28;20231;-83
2022/05/23 12:45:04;;;;;;;14.57;8.50;;;20.70;81.00;;;;;;5039184;28;20184;-80
2022/05/23 12:47:38;;;;;;;17.07;8.83;;;20.50;83.00;;;;;;5023038;28;20568;-81
2022/05/23 12:50:19;;;;;;;16.03;8.87;;;20.00;90.40;;;;;;5038687;28;20229;-78
2022/05/23 12:53:13;;;;;;;14.97;9.00;;;19.90;91.70;;;;;;5045640;28;20286;-80
2022/05/23 12:55:51;;;;;;;17.17;9.77;;;19.80;92.30;;;;;;5026718;28;20239;-77
2022/05/23 12:58:44;;;;;;;15.20;9.63;;;19.70;93.40;;;;;;5030363;28;20193;-83
2022/05/23 13:01:22;;;;;;;16.17;9.60;;;19.70;92.30;;;;;;5045085;28;20169;-81
2022/05/23 13:04:23;;;;;;;13.93;9.67;;;19.50;92.50;;;;;;5051107;28;20165;-79
2022/05/23 13:06:51;;;;;;;16.20;10.27;;;19.40;93.80;;;;;;5045526;28;20301;-85
2022/05/23 13:09:34;;;;;;;15.83;10.03;;;19.00;96.00;;;;;;5045483;28;20166;-79
2022/05/23 13:12:06;;;;;;;14.00;10.93;;;18.90;96.50;;;;;;5049433;28;20335;-77
2022/05/23 13:14:56;;;;;;;13.63;9.97;;;19.10;95.80;;;;;;5048856;28;20181;-82
2022/05/23 13:17:37;;;;;;;12.37;9.70;;;19.30;96.10;;;;;;5058146;28;20201;-79
2022/05/23 13:23:09;;;;;;;15.23;9.47;;;19.00;96.20;;;;;;5049571;28;20238;-78
2022/05/23 13:25:37;;;;;;;13.67;10.17;;;19.00;96.10;;;;;;5052393;28;20255;-77
2022/05/23 13:28:08;;;;;;;14.97;11.00;;;18.90;96.00;;;;;;5043428;28;20173;-79
2022/05/23 13:30:56;;;;;;;14.00;10.73;;;19.00;95.70;;;;;;5047422;28;20190;-80
2022/05/23 13:33:31;;;;;;;13.10;10.03;;;18.90;93.40;;;;;;5046351;28;20213;-79
2022/05/23 13:36:05;;;;;;;12.83;9.93;;;18.70;92.80;;;;;;5045738;28;20166;-81
2022/05/23 13:38:34;;;;;;;15.40;11.70;;;18.70;94.30;;;;;;5046084;28;20176;-77
2022/05/23 13:41:03;;;;;;;15.57;11.17;;;18.80;94.50;;;;;;5052346;28;20245;-77
2022/05/23 13:43:33;;;;;;;14.13;10.93;;;18.80;95.00;;;;;;5052156;28;20166;-78
2022/05/23 13:46:06;;;;;;;13.63;10.87;;;18.80;95.70;;;;;;5052836;28;20205;-78
2022/05/23 13:48:49;;;;;;;14.27;11.60;;;18.90;95.50;;;;;;5054920;28;20161;-76
2022/05/23 13:51:43;;;;;;;14.20;11.40;;;18.80;95.80;;;;;;5055214;28;20260;-79
2022/05/23 13:54:36;;;;;;;15.60;11.47;;;18.90;96.00;;;;;;5050353;28;20181;-79
2022/05/23 13:57:16;;;;;;;14.33;10.93;;;18.90;96.50;;;;;;5052881;28;20261;-79
2022/05/23 14:03:09;;;;;;;14.27;12.70;;;18.90;97.50;;;;;;5039967;28;20257;-88
2022/05/23 14:09:06;;;;;;;16.87;13.63;;;19.00;97.90;;;;;;5039698;28;20240;-89
2022/05/23 14:11:48;;;;;;;15.23;13.57;;;19.10;97.30;;;;;;5052378;28;20186;-80
2022/05/23 14:14:25;;;;;;;16.83;12.97;;;19.20;97.50;;;;;;5068556;28;20171;-80
2022/05/23 14:17:03;;;;;;;14.53;12.73;;;19.20;98.00;;;;;;5066465;28;20177;-87
2022/05/23 14:19:46;;;;;;;20.37;14.43;;;19.20;96.00;;;;;;5078892;28;20195;-80
2022/05/23 14:22:20;;;;;;;16.47;14.53;;;19.10;95.30;;;;;;5042143;28;20162;-80
2022/05/23 14:24:50;;;;;;;22.27;18.30;;;19.20;97.00;;;;;;5043220;28;20157;-83
2022/05/23 14:27:27;;;;;;;18.57;16.57;;;19.20;96.20;;;;;;5048593;28;20642;-86